Time;durP1;ratioP1;P1;durP2;ratioP2;P2;SDS_P1;SDS_P2;PMS_P1;PMS_P2;Temp;Humidity;BMP_temperature;BMP_pressure;BME280_temperature;BME280_humidity;BME280_pressure;Samples;Min_cycle;Max_cycle;Signal;HPM_P1;HPM_P2
2023/01/01 00:01:45;;;;;;;1.58;0.80;;;16.00;73.80;;;;;;5033870;28;20050;-80
2023/01/01 00:04:12;;;;;;;0.73;0.60;;;16.00;73.90;;;;;;5034884;28;20017;-80
2023/01/01 00:06:38;;;;;;;0.73;0.45;;;16.00;73.80;;;;;;5033421;28;20017;-80
2023/01/01 00:11:48;;;;;;;1.65;0.90;;;16.00;73.90;;;;;;5033905;28;20569;-80
2023/01/01 00:14:13;;;;;;;1.88;0.70;;;16.00;73.90;;;;;;5033528;28;20029;-80
2023/01/01 00:16:39;;;;;;;1.20;0.60;;;16.00;73.90;;;;;;5034866;28;20396;-80
2023/01/01 00:19:05;;;;;;;0.82;0.52;;;16.00;73.90;;;;;;5034659;28;20029;-80
2023/01/01 00:21:30;;;;;;;2.42;0.80;;;16.00;73.90;;;;;;5033177;28;20049;-79
2023/01/01 00:23:56;;;;;;;1.92;0.70;;;16.00;73.90;;;;;;5034484;28;20108;-80
2023/01/01 00:26:21;;;;;;;0.88;0.45;;;16.00;74.00;;;;;;5033476;28;20097;-80
2023/01/01 00:28:47;;;;;;;2.15;0.68;;;16.00;74.00;;;;;;5034448;28;20029;-80
2023/01/01 00:31:18;;;;;;;1.88;0.63;;;16.00;74.00;;;;;;5033106;28;20103;-80
2023/01/01 00:33:53;;;;;;;0.90;0.70;;;16.00;74.00;;;;;;5033157;28;20476;-80
2023/01/01 00:36:19;;;;;;;1.60;0.52;;;15.90;74.00;;;;;;5032804;28;20423;-80
2023/01/01 00:38:45;;;;;;;1.70;0.80;;;16.00;73.90;;;;;;5033290;28;20022;-80
2023/01/01 00:41:11;;;;;;;1.90;0.80;;;16.00;73.90;;;;;;5033114;28;20025;-80
2023/01/01 00:43:37;;;;;;;2.10;0.60;;;15.90;75.00;;;;;;5034286;28;20095;-80
2023/01/01 00:46:03;;;;;;;2.50;1.00;;;15.90;73.90;;;;;;5033111;28;20500;-79
2023/01/01 00:48:28;;;;;;;1.40;0.60;;;15.90;74.10;;;;;;5016554;28;20037;-80
2023/01/01 00:50:54;;;;;;;1.85;0.60;;;15.90;74.00;;;;;;5032715;28;20021;-79
2023/01/01 00:53:20;;;;;;;0.80;0.40;;;15.90;74.10;;;;;;5032818;28;20025;-80
2023/01/01 00:55:46;;;;;;;1.13;0.47;;;15.90;74.00;;;;;;5032795;28;20036;-79
2023/01/01 00:58:12;;;;;;;0.82;0.57;;;15.90;74.10;;;;;;5032676;28;20036;-79
2023/01/01 01:00:37;;;;;;;1.15;0.50;;;15.90;74.10;;;;;;5016149;28;20021;-80
2023/01/01 01:03:03;;;;;;;0.73;0.50;;;15.90;74.10;;;;;;5026794;28;20053;-80
2023/01/01 01:05:30;;;;;;;1.90;0.70;;;15.90;74.00;;;;;;5012616;28;20026;-79
2023/01/01 01:07:56;;;;;;;0.80;0.38;;;15.90;74.10;;;;;;5012842;28;20030;-80
2023/01/01 01:10:22;;;;;;;1.20;0.50;;;15.90;74.10;;;;;;5012622;28;20024;-80
2023/01/01 01:12:48;;;;;;;0.98;0.30;;;15.90;75.10;;;;;;5012803;28;20084;-80
2023/01/01 01:15:14;;;;;;;0.70;0.43;;;15.90;74.10;;;;;;5012666;28;20018;-80
2023/01/01 01:17:40;;;;;;;1.30;0.50;;;15.90;74.10;;;;;;5013758;28;20030;-79
2023/01/01 01:20:06;;;;;;;1.70;0.60;;;15.90;74.10;;;;;;5011829;28;20102;-79
2023/01/01 01:22:33;;;;;;;2.13;0.30;;;15.90;74.10;;;;;;5013811;28;20480;-79
2023/01/01 01:24:59;;;;;;;1.65;0.70;;;15.90;74.20;;;;;;5012453;28;20029;-79
2023/01/01 01:27:24;;;;;;;1.38;0.82;;;15.90;74.10;;;;;;5012465;28;20463;-80
2023/01/01 01:29:50;;;;;;;1.48;0.60;;;15.90;74.20;;;;;;5013748;28;20025;-80
2023/01/01 01:32:16;;;;;;;0.75;0.40;;;15.80;74.10;;;;;;5012167;28;20057;-80
2023/01/01 01:34:41;;;;;;;1.08;0.68;;;15.90;74.10;;;;;;5012352;28;20053;-79
2023/01/01 01:37:07;;;;;;;2.15;0.77;;;15.90;74.10;;;;;;5013507;28;20053;-79
2023/01/01 01:39:33;;;;;;;1.33;0.60;;;15.80;74.10;;;;;;5013485;28;20100;-80
2023/01/01 01:42:01;;;;;;;1.58;0.50;;;15.80;74.20;;;;;;5013554;28;20495;-79
2023/01/01 01:44:47;;;;;;;2.13;0.73;;;15.80;74.20;;;;;;5012185;28;20464;-80
2023/01/01 01:47:39;;;;;;;1.23;0.60;;;15.80;74.20;;;;;;5013171;28;20106;-80
2023/01/01 01:50:23;;;;;;;1.63;0.80;;;15.90;74.20;;;;;;5012082;28;20061;-80
2023/01/01 01:53:04;;;;;;;1.42;0.70;;;15.80;74.20;;;;;;5011951;28;20065;-79
2023/01/01 01:55:31;;;;;;;1.38;0.50;;;15.80;74.20;;;;;;5022250;28;20108;-79
2023/01/01 01:57:57;;;;;;;1.73;0.73;;;15.80;74.20;;;;;;5031874;28;20029;-80
2023/01/01 02:00:22;;;;;;;2.75;0.70;;;15.80;74.30;;;;;;5031332;28;20029;-80
2023/01/01 02:03:01;;;;;;;1.52;0.73;;;15.80;74.20;;;;;;5027603;28;20060;-79
2023/01/01 02:05:26;;;;;;;1.65;0.60;;;15.80;74.30;;;;;;5011710;28;20033;-80
2023/01/01 02:07:52;;;;;;;1.33;0.43;;;15.80;74.30;;;;;;5011768;28;20026;-79
2023/01/01 02:10:18;;;;;;;1.98;0.65;;;15.80;74.30;;;;;;5011658;28;20030;-80
2023/01/01 02:12:44;;;;;;;2.92;0.57;;;15.80;74.30;;;;;;5011750;28;20033;-80
2023/01/01 02:15:09;;;;;;;0.98;0.50;;;15.80;74.30;;;;;;5012914;28;20072;-79
2023/01/01 02:17:44;;;;;;;0.82;0.50;;;15.80;74.30;;;;;;5011484;28;20029;-79
2023/01/01 02:20:28;;;;;;;1.23;0.50;;;15.80;74.30;;;;;;5012744;28;20030;-80
2023/01/01 02:23:18;;;;;;;1.63;0.70;;;15.80;74.30;;;;;;5011934;28;20033;-79
2023/01/01 02:26:00;;;;;;;1.45;0.50;;;15.80;74.20;;;;;;5012909;28;20053;-80
2023/01/01 02:28:59;;;;;;;2.25;0.50;;;15.80;74.30;;;;;;5011444;28;20026;-80
2023/01/01 02:31:27;;;;;;;1.38;0.47;;;15.80;74.30;;;;;;5011533;28;20088;-80
2023/01/01 02:33:54;;;;;;;1.35;0.60;;;15.80;74.30;;;;;;5011441;28;20105;-79
2023/01/01 02:36:21;;;;;;;1.17;0.50;;;15.80;74.30;;;;;;5011425;28;20109;-80
2023/01/01 02:38:49;;;;;;;2.22;0.68;;;15.70;74.30;;;;;;5011440;28;20484;-79
2023/01/01 02:41:21;;;;;;;2.67;0.70;;;15.70;75.30;;;;;;5011538;28;20054;-80
2023/01/01 02:43:47;;;;;;;1.88;0.65;;;15.70;74.20;;;;;;5011382;28;20036;-79
2023/01/01 02:46:13;;;;;;;1.85;0.80;;;15.70;74.30;;;;;;5011038;28;20026;-79
2023/01/01 02:48:46;;;;;;;2.17;0.73;;;15.70;74.30;;;;;;5011370;28;20034;-80
2023/01/01 02:51:47;;;;;;;1.13;0.50;;;15.70;74.30;;;;;;5011225;28;20018;-79
2023/01/01 02:54:18;;;;;;;1.70;0.60;;;15.70;74.40;;;;;;5011242;28;20060;-79
2023/01/01 02:57:18;;;;;;;1.38;0.63;;;15.70;74.40;;;;;;5012469;28;20447;-79
2023/01/01 03:00:23;;;;;;;1.50;0.57;;;15.70;74.40;;;;;;5012515;28;20056;-79
2023/01/01 03:03:05;;;;;;;1.30;0.63;;;15.70;74.40;;;;;;5015746;28;20053;-79
2023/01/01 03:06:21;;;;;;;2.92;0.82;;;15.70;74.40;;;;;;5014333;28;20049;-79
2023/01/01 03:08:31;;;;;;;3.08;0.82;;;15.70;74.40;;;;;;5031019;28;20033;-80
2023/01/01 03:11:11;;;;;;;1.27;0.50;;;15.70;74.40;;;;;;4998200;28;20041;-80
2023/01/01 03:13:43;;;;;;;1.65;0.65;;;15.70;74.40;;;;;;5031121;28;20018;-80
2023/01/01 03:16:24;;;;;;;1.75;0.80;;;15.70;74.40;;;;;;5030794;28;20022;-79
2023/01/01 03:19:10;;;;;;;2.30;0.80;;;15.70;74.40;;;;;;5014557;28;20028;-80
2023/01/01 03:21:57;;;;;;;1.48;0.80;;;15.70;74.40;;;;;;5031829;28;20033;-79
2023/01/01 03:24:43;;;;;;;3.97;1.05;;;15.70;74.40;;;;;;5020811;28;20030;-79
2023/01/01 03:27:45;;;;;;;2.47;0.55;;;15.70;74.40;;;;;;5030889;28;20025;-79
2023/01/01 03:30:12;;;;;;;1.90;0.70;;;15.70;74.40;;;;;;4973821;28;20031;-79
2023/01/01 03:33:04;;;;;;;3.53;0.90;;;15.70;74.40;;;;;;4974305;28;20271;-79
2023/01/01 03:35:34;;;;;;;2.53;0.50;;;15.70;74.40;;;;;;4971266;28;20041;-80
2023/01/01 03:38:00;;;;;;;2.70;1.10;;;15.70;74.50;;;;;;4974111;28;20049;-79
2023/01/01 03:40:26;;;;;;;3.25;1.08;;;15.70;74.40;;;;;;4974018;28;20413;-80
2023/01/01 03:42:59;;;;;;;2.17;0.73;;;15.70;74.50;;;;;;4976404;28;20081;-79
2023/01/01 03:45:28;;;;;;;2.65;0.93;;;15.70;74.50;;;;;;4977232;28;20030;-80
2023/01/01 03:47:54;;;;;;;1.52;0.50;;;15.70;74.50;;;;;;4977809;28;20026;-79
2023/01/01 03:50:21;;;;;;;2.60;0.80;;;15.60;74.50;;;;;;4977396;28;20090;-80
2023/01/01 03:52:53;;;;;;;1.95;0.63;;;15.70;74.50;;;;;;4977655;28;20035;-79
2023/01/01 03:55:26;;;;;;;1.60;0.50;;;15.60;74.50;;;;;;4977109;28;20030;-79
2023/01/01 03:58:03;;;;;;;;;;;15.70;74.50;;;;;;5010463;28;20548;-79
2023/01/01 04:00:38;;;;;;;3.03;0.90;;;15.70;74.50;;;;;;4993307;28;19910;-79
2023/01/01 04:03:06;;;;;;;1.75;0.60;;;15.60;74.60;;;;;;4986344;28;20505;-79
2023/01/01 04:05:35;;;;;;;1.67;0.60;;;15.60;74.50;;;;;;4996743;28;20045;-79
2023/01/01 04:08:01;;;;;;;1.13;0.60;;;15.60;74.50;;;;;;5014117;28;20014;-80
2023/01/01 04:10:27;;;;;;;0.90;0.70;;;15.60;74.50;;;;;;5013613;28;20029;-79
2023/01/01 04:12:54;;;;;;;2.38;0.85;;;15.60;74.50;;;;;;5013906;28;20038;-80
2023/01/01 04:15:22;;;;;;;1.35;0.65;;;15.60;74.50;;;;;;5013731;28;20025;-79
2023/01/01 04:17:48;;;;;;;1.98;0.68;;;15.60;74.50;;;;;;5014934;28;20018;-79
2023/01/01 04:20:14;;;;;;;2.72;0.90;;;15.60;74.60;;;;;;5014961;28;20423;-80
2023/01/01 04:22:40;;;;;;;2.22;0.90;;;15.60;74.60;;;;;;5014868;28;20033;-80
2023/01/01 04:25:06;;;;;;;2.35;0.80;;;15.60;74.60;;;;;;5014989;28;20030;-80
2023/01/01 04:27:32;;;;;;;2.25;0.90;;;15.60;75.20;;;;;;5013521;28;20025;-79
2023/01/01 04:29:57;;;;;;;3.20;0.63;;;15.60;74.60;;;;;;5013314;28;20037;-79
2023/01/01 04:32:23;;;;;;;2.42;0.70;;;15.60;74.60;;;;;;5014677;28;20033;-79
2023/01/01 04:34:48;;;;;;;3.00;0.80;;;15.60;74.60;;;;;;5013549;28;20026;-79
2023/01/01 04:37:14;;;;;;;1.10;0.50;;;15.60;74.60;;;;;;5013649;28;20066;-79
2023/01/01 04:39:40;;;;;;;3.40;1.10;;;15.60;74.70;;;;;;5014549;28;20441;-79
2023/01/01 04:42:05;;;;;;;2.33;0.70;;;15.60;74.60;;;;;;5013038;28;20396;-79
2023/01/01 04:44:31;;;;;;;4.00;1.10;;;15.60;74.60;;;;;;5013260;28;20107;-79
2023/01/01 04:46:57;;;;;;;2.60;1.00;;;15.60;74.60;;;;;;5013436;28;20058;-80
2023/01/01 04:49:22;;;;;;;1.83;0.70;;;15.60;74.60;;;;;;5013139;28;20030;-79
2023/01/01 04:51:48;;;;;;;2.88;0.80;;;15.60;74.60;;;;;;5013022;28;20099;-79
2023/01/01 04:54:14;;;;;;;1.05;0.57;;;15.60;74.60;;;;;;5013488;28;20089;-79
2023/01/01 04:56:39;;;;;;;2.22;0.70;;;15.60;74.60;;;;;;5033618;28;20035;-79
2023/01/01 04:59:05;;;;;;;2.90;0.85;;;15.60;74.60;;;;;;5033930;28;20483;-79
2023/01/01 05:01:31;;;;;;;3.60;0.82;;;15.60;74.60;;;;;;5032416;28;20561;-80
2023/01/01 05:03:57;;;;;;;1.83;0.75;;;15.60;75.60;;;;;;5016251;28;20132;-80
2023/01/01 05:06:23;;;;;;;2.05;0.82;;;15.50;74.70;;;;;;5032662;28;20032;-79
2023/01/01 05:08:49;;;;;;;2.28;0.60;;;15.60;74.70;;;;;;5032579;28;20033;-79
2023/01/01 05:11:19;;;;;;;3.15;0.95;;;15.50;74.60;;;;;;5032461;28;20084;-80
2023/01/01 05:13:46;;;;;;;2.72;0.90;;;15.60;74.70;;;;;;5032437;28;20118;-79
2023/01/01 05:16:15;;;;;;;2.35;0.75;;;15.60;74.70;;;;;;5032482;28;20101;-80
2023/01/01 05:18:41;;;;;;;2.63;0.77;;;15.50;74.70;;;;;;5032289;28;20026;-79
2023/01/01 05:21:08;;;;;;;1.75;0.80;;;15.60;74.70;;;;;;5032368;28;20025;-80
2023/01/01 05:23:34;;;;;;;2.15;0.65;;;15.50;74.70;;;;;;5033487;28;20078;-79
2023/01/01 05:25:59;;;;;;;2.22;0.77;;;15.60;74.70;;;;;;5033414;28;20100;-80
2023/01/01 05:28:25;;;;;;;2.00;0.60;;;15.50;74.70;;;;;;5033367;28;20437;-79
2023/01/01 05:30:51;;;;;;;1.70;0.70;;;15.60;74.70;;;;;;5015571;28;20021;-79
2023/01/01 05:33:17;;;;;;;1.40;0.63;;;15.60;74.70;;;;;;5032237;28;20025;-80
2023/01/01 05:35:43;;;;;;;2.15;0.70;;;15.50;74.70;;;;;;5032003;28;20472;-80
2023/01/01 05:38:09;;;;;;;3.33;0.98;;;15.60;74.80;;;;;;5033349;28;20400;-80
2023/01/01 05:40:37;;;;;;;2.33;0.60;;;15.50;74.70;;;;;;5031717;28;20029;-80
2023/01/01 05:43:03;;;;;;;1.85;0.85;;;15.50;74.80;;;;;;5031994;28;20029;-79
2023/01/01 05:45:28;;;;;;;1.38;0.65;;;15.50;74.70;;;;;;5032876;28;20530;-80
2023/01/01 05:47:55;;;;;;;2.13;0.82;;;15.50;74.70;;;;;;5033302;28;20029;-79
2023/01/01 05:50:20;;;;;;;2.47;0.68;;;15.50;74.70;;;;;;5031779;28;20013;-79
2023/01/01 05:52:46;;;;;;;2.28;0.60;;;15.50;74.80;;;;;;5033027;28;20028;-79
2023/01/01 05:55:12;;;;;;;2.10;0.73;;;15.50;74.80;;;;;;5032846;28;20331;-80
2023/01/01 05:57:37;;;;;;;1.95;0.70;;;15.50;74.80;;;;;;5032660;28;20527;-80
2023/01/01 06:00:04;;;;;;;1.92;0.85;;;15.50;74.80;;;;;;5032831;28;20515;-79
2023/01/01 06:02:30;;;;;;;3.20;0.95;;;15.50;74.80;;;;;;5032574;28;20076;-80
2023/01/01 06:04:55;;;;;;;2.33;1.05;;;15.50;74.80;;;;;;5031514;28;20029;-80
2023/01/01 06:07:21;;;;;;;1.75;1.08;;;15.50;74.80;;;;;;5031674;28;20031;-79
2023/01/01 06:09:47;;;;;;;3.83;0.90;;;15.50;74.90;;;;;;5032262;28;20029;-79
2023/01/01 06:12:12;;;;;;;1.63;1.00;;;15.50;74.80;;;;;;5032603;28;20021;-80
2023/01/01 06:14:38;;;;;;;2.78;1.00;;;15.50;74.80;;;;;;5031351;28;20026;-80
2023/01/01 06:17:04;;;;;;;2.92;0.90;;;15.50;74.80;;;;;;5032625;28;20033;-80
2023/01/01 06:19:29;;;;;;;1.90;0.70;;;15.50;74.80;;;;;;5032525;28;20025;-80
2023/01/01 06:21:55;;;;;;;2.20;0.77;;;15.50;74.90;;;;;;5031448;28;20026;-79
2023/01/01 06:24:20;;;;;;;3.38;0.80;;;15.50;74.90;;;;;;5032247;28;20026;-79
2023/01/01 06:26:46;;;;;;;2.45;1.02;;;15.50;74.90;;;;;;5031172;28;20036;-80
2023/01/01 06:29:12;;;;;;;1.35;0.50;;;15.50;74.90;;;;;;5031375;28;20492;-80
2023/01/01 06:31:37;;;;;;;1.27;0.50;;;15.50;74.80;;;;;;5030864;28;20492;-79
2023/01/01 06:34:03;;;;;;;2.22;0.80;;;15.50;74.90;;;;;;5032462;28;20029;-80
2023/01/01 06:36:29;;;;;;;2.13;0.98;;;15.50;74.90;;;;;;5031134;28;20029;-80
2023/01/01 06:38:55;;;;;;;1.52;0.80;;;15.50;74.90;;;;;;5030841;28;20021;-80
2023/01/01 06:41:22;;;;;;;1.52;0.55;;;15.50;74.90;;;;;;5031098;28;20053;-80
2023/01/01 06:43:48;;;;;;;1.70;0.80;;;15.50;74.90;;;;;;5031159;28;20017;-80
2023/01/01 06:46:25;;;;;;;1.88;0.95;;;15.50;74.90;;;;;;5031166;28;20040;-80
2023/01/01 06:48:56;;;;;;;1.38;0.75;;;15.50;74.90;;;;;;5031002;28;20030;-79
2023/01/01 06:51:26;;;;;;;2.63;0.65;;;15.50;74.90;;;;;;5030948;28;20036;-79
2023/01/01 06:53:52;;;;;;;1.48;0.55;;;15.40;74.90;;;;;;5030832;28;20045;-80
2023/01/01 06:56:18;;;;;;;1.77;0.70;;;15.40;74.90;;;;;;5011063;28;20059;-80
2023/01/01 06:58:44;;;;;;;1.02;0.52;;;15.40;74.90;;;;;;5027436;28;20018;-80
2023/01/01 07:01:10;;;;;;;2.15;0.70;;;15.40;74.90;;;;;;5044118;28;20121;-80
2023/01/01 07:03:36;;;;;;;1.67;0.90;;;15.40;74.90;;;;;;5055175;28;20064;-79
2023/01/01 07:06:02;;;;;;;2.53;0.70;;;15.40;74.90;;;;;;5032032;28;20018;-79
2023/01/01 07:08:28;;;;;;;1.33;0.60;;;15.40;74.90;;;;;;5030935;28;20034;-80
2023/01/01 07:10:56;;;;;;;1.60;0.57;;;15.40;75.00;;;;;;5031919;28;20478;-79
2023/01/01 07:13:23;;;;;;;1.80;0.73;;;15.40;74.90;;;;;;5032018;28;20032;-79
2023/01/01 07:15:48;;;;;;;1.63;0.60;;;15.40;74.90;;;;;;5031902;28;20017;-79
2023/01/01 07:18:14;;;;;;;1.63;0.60;;;15.40;75.00;;;;;;5034006;28;20030;-80
2023/01/01 07:20:40;;;;;;;0.65;0.45;;;15.40;75.00;;;;;;5035848;28;20036;-79
2023/01/01 07:23:05;;;;;;;1.02;0.60;;;15.40;75.00;;;;;;5034528;28;20033;-80
2023/01/01 07:25:31;;;;;;;2.55;0.90;;;15.40;75.00;;;;;;5035626;28;20491;-79
2023/01/01 07:27:56;;;;;;;2.60;1.25;;;15.40;75.00;;;;;;5035821;28;20032;-80
2023/01/01 07:30:22;;;;;;;1.38;0.57;;;15.40;75.00;;;;;;5034365;28;20030;-79
2023/01/01 07:32:53;;;;;;;2.55;0.75;;;15.40;75.00;;;;;;5035587;28;20022;-79
2023/01/01 07:35:19;;;;;;;1.70;0.80;;;15.40;75.00;;;;;;5034558;28;20025;-79
2023/01/01 07:37:45;;;;;;;1.90;0.90;;;15.40;75.00;;;;;;5035241;28;20029;-79
2023/01/01 07:40:11;;;;;;;3.20;0.75;;;15.40;75.10;;;;;;5035469;28;20391;-80
2023/01/01 07:42:36;;;;;;;2.15;0.80;;;15.40;75.00;;;;;;5035449;28;20506;-80
2023/01/01 07:45:02;;;;;;;1.45;0.65;;;15.40;75.00;;;;;;5035396;28;20091;-79
2023/01/01 07:47:27;;;;;;;1.45;0.60;;;15.40;75.00;;;;;;5035432;28;20095;-79
2023/01/01 07:49:53;;;;;;;1.73;0.70;;;15.40;75.10;;;;;;5035226;28;20057;-80
2023/01/01 07:52:19;;;;;;;2.22;0.60;;;15.40;75.00;;;;;;5035000;28;20036;-80
2023/01/01 07:54:44;;;;;;;3.97;1.13;;;15.40;75.10;;;;;;5035554;28;20025;-80
2023/01/01 07:57:10;;;;;;;1.80;0.80;;;15.40;75.10;;;;;;5034001;28;20376;-79
2023/01/01 07:59:36;;;;;;;2.92;1.00;;;15.40;75.10;;;;;;5033921;28;20486;-80
2023/01/01 08:02:01;;;;;;;1.83;0.75;;;15.40;75.10;;;;;;5033698;28;20540;-79
2023/01/01 08:04:27;;;;;;;1.20;0.70;;;15.40;75.10;;;;;;5015651;28;20018;-79
2023/01/01 08:06:53;;;;;;;1.15;0.47;;;15.40;75.00;;;;;;5014807;28;20041;-80
2023/01/01 08:09:18;;;;;;;1.80;0.60;;;15.40;75.10;;;;;;5014181;28;20022;-80
2023/01/01 08:11:44;;;;;;;1.67;0.50;;;15.40;75.10;;;;;;5015104;28;20108;-79
2023/01/01 08:14:10;;;;;;;2.97;0.80;;;15.30;75.10;;;;;;5013819;28;20528;-80
2023/01/01 08:16:36;;;;;;;2.10;0.80;;;15.40;75.10;;;;;;5013840;28;20556;-80
2023/01/01 08:19:01;;;;;;;1.88;0.57;;;15.40;75.20;;;;;;5013834;28;20168;-79
2023/01/01 08:21:27;;;;;;;1.67;0.77;;;15.40;75.10;;;;;;5013529;28;20105;-80
2023/01/01 08:23:53;;;;;;;1.70;0.50;;;15.40;75.10;;;;;;5013661;28;20515;-79
2023/01/01 08:26:26;;;;;;;2.30;0.70;;;15.40;75.20;;;;;;5013637;28;20033;-79
2023/01/01 08:28:52;;;;;;;2.25;0.82;;;15.40;75.20;;;;;;4995813;28;20026;-80
2023/01/01 08:31:17;;;;;;;1.38;0.77;;;15.30;75.20;;;;;;5014993;28;20492;-80
2023/01/01 08:33:43;;;;;;;3.10;1.13;;;15.40;75.20;;;;;;5014709;28;20488;-80
2023/01/01 08:36:09;;;;;;;0.95;0.60;;;15.40;75.20;;;;;;5014578;28;20022;-80
2023/01/01 08:38:35;;;;;;;2.00;0.75;;;15.40;75.20;;;;;;5013680;28;20017;-79
2023/01/01 08:41:01;;;;;;;3.47;0.90;;;15.30;75.10;;;;;;5013397;28;20034;-79
2023/01/01 08:43:26;;;;;;;2.10;0.80;;;15.40;75.20;;;;;;5014731;28;20034;-79
2023/01/01 08:45:52;;;;;;;1.92;0.70;;;15.40;75.20;;;;;;5014369;28;20036;-80
2023/01/01 08:48:17;;;;;;;1.33;0.50;;;15.40;75.20;;;;;;5014436;28;20105;-80
2023/01/01 08:50:43;;;;;;;2.85;1.00;;;15.40;75.20;;;;;;5014227;28;20034;-80
2023/01/01 08:53:09;;;;;;;1.27;0.50;;;15.40;75.30;;;;;;5014475;28;20022;-80
2023/01/01 08:55:34;;;;;;;1.85;0.70;;;15.30;75.20;;;;;;5025060;28;20030;-80
2023/01/01 08:58:00;;;;;;;1.85;0.55;;;15.30;75.10;;;;;;5032913;28;20021;-80
2023/01/01 09:00:25;;;;;;;1.83;0.70;;;15.40;75.20;;;;;;5033990;28;20029;-80
2023/01/01 09:02:51;;;;;;;1.40;0.70;;;15.40;75.20;;;;;;5028428;28;20107;-79
2023/01/01 09:05:17;;;;;;;2.03;0.68;;;15.30;75.20;;;;;;5012938;28;20062;-80
2023/01/01 09:07:42;;;;;;;2.33;0.85;;;15.30;75.20;;;;;;5013789;28;20026;-80
2023/01/01 09:10:08;;;;;;;2.10;0.90;;;15.40;75.30;;;;;;5013957;28;20044;-80
2023/01/01 09:12:34;;;;;;;1.63;0.57;;;15.40;75.30;;;;;;5014065;28;20018;-80
2023/01/01 09:14:59;;;;;;;2.38;0.80;;;15.30;75.20;;;;;;5012748;28;20365;-79
2023/01/01 09:17:25;;;;;;;1.58;0.63;;;15.30;75.20;;;;;;5012836;28;20388;-79
2023/01/01 09:19:51;;;;;;;1.45;0.70;;;15.40;75.30;;;;;;5012498;28;20032;-80
2023/01/01 09:22:16;;;;;;;1.25;0.70;;;15.30;75.20;;;;;;5013895;28;20096;-80
2023/01/01 09:24:42;;;;;;;1.42;0.82;;;15.30;75.30;;;;;;5013788;28;20429;-79
2023/01/01 09:27:07;;;;;;;1.27;0.77;;;15.30;75.20;;;;;;5012482;28;20657;-80
2023/01/01 09:29:33;;;;;;;2.65;0.70;;;15.30;75.20;;;;;;5013518;28;20105;-80
2023/01/01 09:31:59;;;;;;;1.80;0.63;;;15.30;75.20;;;;;;5013638;28;20060;-79
2023/01/01 09:34:24;;;;;;;2.25;0.70;;;15.30;75.30;;;;;;5012310;28;20095;-79
2023/01/01 09:36:50;;;;;;;2.20;0.90;;;15.30;75.30;;;;;;5012396;28;20033;-79
2023/01/01 09:39:15;;;;;;;5.13;0.88;;;15.30;75.30;;;;;;5013362;28;20378;-79
2023/01/01 09:41:56;;;;;;;0.93;0.70;;;15.30;75.20;;;;;;5013676;28;20082;-80
2023/01/01 09:44:43;;;;;;;2.10;0.73;;;15.30;75.20;;;;;;5012358;28;20022;-80
2023/01/01 09:47:25;;;;;;;3.30;0.77;;;15.30;75.30;;;;;;5013360;28;20453;-80
2023/01/01 09:49:50;;;;;;;2.05;0.70;;;15.30;75.20;;;;;;5012264;28;20029;-80
2023/01/01 09:52:16;;;;;;;2.03;0.75;;;15.30;75.30;;;;;;5013360;28;20499;-79
2023/01/01 09:54:58;;;;;;;4.00;0.90;;;15.30;75.30;;;;;;5015505;28;20029;-79
2023/01/01 09:57:30;;;;;;;1.40;0.57;;;15.30;75.80;;;;;;5031933;28;20476;-80
2023/01/01 09:59:58;;;;;;;1.92;0.63;;;15.30;75.30;;;;;;5031733;28;20026;-80
2023/01/01 10:02:42;;;;;;;2.20;0.60;;;15.30;75.30;;;;;;5029920;28;20038;-80
2023/01/01 10:05:20;;;;;;;1.27;0.50;;;15.30;75.30;;;;;;5013199;28;20022;-79
2023/01/01 10:08:08;;;;;;;1.83;0.80;;;15.30;75.30;;;;;;5011710;28;20484;-80
2023/01/01 10:10:43;;;;;;;2.88;0.68;;;15.30;75.30;;;;;;5012673;28;20089;-80
2023/01/01 10:13:26;;;;;;;1.58;0.55;;;15.30;75.40;;;;;;5013026;28;20088;-80
2023/01/01 10:16:08;;;;;;;1.50;0.82;;;15.30;75.30;;;;;;5011672;28;20065;-80
2023/01/01 10:18:37;;;;;;;1.50;0.70;;;15.30;75.40;;;;;;5011845;28;20029;-80
2023/01/01 10:21:18;;;;;;;2.90;0.98;;;15.30;75.30;;;;;;5011824;28;20091;-80
2023/01/01 10:23:46;;;;;;;2.05;1.10;;;15.30;75.40;;;;;;5011660;28;20376;-79
2023/01/01 10:26:17;;;;;;;1.23;0.70;;;15.30;75.30;;;;;;5011758;28;20030;-80
2023/01/01 10:28:58;;;;;;;1.67;0.60;;;15.30;75.30;;;;;;5011621;28;20018;-80
2023/01/01 10:31:35;;;;;;;1.55;0.60;;;15.30;75.40;;;;;;5011329;28;20030;-80
2023/01/01 10:34:15;;;;;;;0.95;0.45;;;15.30;76.40;;;;;;5012613;28;20026;-80
2023/01/01 10:36:42;;;;;;;1.92;0.60;;;15.30;75.40;;;;;;5011834;28;20033;-80
2023/01/01 10:39:13;;;;;;;1.25;0.70;;;15.30;75.40;;;;;;5011639;28;20083;-80
2023/01/01 10:41:38;;;;;;;1.65;0.70;;;15.30;75.40;;;;;;5011553;28;20036;-80
2023/01/01 10:44:05;;;;;;;1.05;0.50;;;15.30;75.40;;;;;;5011253;28;20034;-80
2023/01/01 10:46:31;;;;;;;1.70;0.80;;;15.30;75.40;;;;;;5011246;28;20022;-79
2023/01/01 10:49:10;;;;;;;1.42;0.70;;;15.30;75.40;;;;;;5011304;28;20523;-79
2023/01/01 10:51:44;;;;;;;1.55;0.80;;;15.30;75.40;;;;;;5012039;28;20037;-80
2023/01/01 10:54:38;;;;;;;2.60;0.90;;;15.30;75.40;;;;;;5015307;28;20018;-80
2023/01/01 10:57:26;;;;;;;1.92;0.82;;;15.30;75.40;;;;;;5031852;28;20424;-80
2023/01/01 10:59:52;;;;;;;1.73;0.80;;;15.30;75.40;;;;;;5016186;28;20026;-79
2023/01/01 11:02:23;;;;;;;1.35;0.70;;;15.30;75.40;;;;;;5015701;28;20563;-79
2023/01/01 11:04:49;;;;;;;2.47;0.90;;;15.30;75.40;;;;;;5033292;28;20379;-80
2023/01/01 11:07:26;;;;;;;2.80;0.90;;;15.30;75.50;;;;;;5034730;28;20495;-79
2023/01/01 11:09:53;;;;;;;1.83;0.75;;;15.30;75.50;;;;;;5015125;28;20026;-79
2023/01/01 11:12:21;;;;;;;1.58;0.60;;;15.30;75.40;;;;;;5014988;28;20018;-80
2023/01/01 11:14:53;;;;;;;2.17;0.50;;;15.30;75.40;;;;;;5031553;28;20448;-79
2023/01/01 11:17:23;;;;;;;2.65;0.75;;;15.30;75.50;;;;;;5031603;28;20049;-80
2023/01/01 11:19:49;;;;;;;1.25;0.47;;;15.30;75.50;;;;;;5031426;28;20018;-80
2023/01/01 11:22:36;;;;;;;2.47;0.70;;;15.30;75.50;;;;;;5019768;28;20083;-79
2023/01/01 11:25:03;;;;;;;1.98;0.60;;;15.30;75.50;;;;;;5034612;28;20025;-79
2023/01/01 11:27:28;;;;;;;1.20;0.60;;;15.30;75.50;;;;;;5018310;28;20025;-80
2023/01/01 11:30:21;;;;;;;1.35;0.60;;;15.30;75.60;;;;;;5034205;28;20381;-79
2023/01/01 11:32:47;;;;;;;;;;;15.30;75.50;;;;;;5036194;28;20018;-80
2023/01/01 11:35:24;;;;;;;1.38;0.60;;;15.30;75.50;;;;;;5034556;28;19955;-79
2023/01/01 11:37:50;;;;;;;1.70;0.82;;;15.20;75.50;;;;;;5034461;28;20484;-79
2023/01/01 11:40:24;;;;;;;2.88;0.70;;;15.20;75.50;;;;;;5034251;28;20026;-79
2023/01/01 11:42:52;;;;;;;1.23;0.50;;;15.20;75.50;;;;;;5034168;28;20029;-79
2023/01/01 11:45:23;;;;;;;1.70;0.73;;;15.30;75.50;;;;;;5034510;28;20553;-79
2023/01/01 11:47:57;;;;;;;2.47;0.60;;;15.20;75.50;;;;;;5034492;28;20163;-80
2023/01/01 11:50:28;;;;;;;1.33;0.60;;;15.30;75.50;;;;;;5035351;28;20064;-79
2023/01/01 11:52:57;;;;;;;2.53;0.75;;;15.30;75.50;;;;;;5034122;28;20464;-79
2023/01/01 11:55:43;;;;;;;2.35;0.80;;;15.30;75.60;;;;;;5033957;28;20053;-80
2023/01/01 11:58:35;;;;;;;2.42;1.00;;;15.30;75.60;;;;;;5033861;28;20028;-80
2023/01/01 12:01:15;;;;;;;2.17;0.80;;;15.20;75.50;;;;;;5033714;28;20029;-79
2023/01/01 12:04:04;;;;;;;2.95;0.80;;;15.20;75.60;;;;;;5033809;28;20087;-79
2023/01/01 12:06:52;;;;;;;3.03;0.82;;;15.30;75.60;;;;;;5035163;28;20026;-80
2023/01/01 12:09:24;;;;;;;1.48;0.63;;;15.20;75.50;;;;;;5034140;28;20438;-79
2023/01/01 12:12:07;;;;;;;1.92;0.70;;;15.20;75.60;;;;;;5029958;28;20108;-79
2023/01/01 12:14:48;;;;;;;1.25;0.57;;;15.20;75.50;;;;;;5014147;28;20014;-79
2023/01/01 12:17:19;;;;;;;2.20;0.82;;;15.20;75.50;;;;;;5014133;28;20018;-79
2023/01/01 12:20:10;;;;;;;2.00;0.85;;;15.20;75.50;;;;;;5013734;28;20022;-79
2023/01/01 12:22:36;;;;;;;1.27;0.65;;;15.20;75.60;;;;;;5011320;28;20045;-79
2023/01/01 12:25:02;;;;;;;2.00;0.60;;;15.20;75.50;;;;;;5014842;28;20026;-79
2023/01/01 12:27:40;;;;;;;1.95;0.70;;;15.20;75.60;;;;;;5013772;28;20014;-79
2023/01/01 12:30:22;;;;;;;1.70;0.75;;;15.30;75.60;;;;;;5014647;28;20053;-80
2023/01/01 12:33:11;;;;;;;1.50;0.57;;;15.20;75.50;;;;;;4997210;28;20021;-79
2023/01/01 12:35:49;;;;;;;2.17;0.80;;;15.20;75.60;;;;;;5013790;28;20033;-79
2023/01/01 12:38:45;;;;;;;0.73;0.40;;;15.20;75.50;;;;;;5013445;28;20024;-80
2023/01/01 12:41:38;;;;;;;1.67;0.80;;;15.30;75.60;;;;;;5014668;28;20034;-79
2023/01/01 12:44:23;;;;;;;1.85;0.73;;;15.20;75.60;;;;;;5014616;28;20477;-79
2023/01/01 12:47:04;;;;;;;2.22;0.90;;;15.30;75.60;;;;;;5013444;28;20030;-79
2023/01/01 12:49:46;;;;;;;1.73;0.60;;;15.20;75.50;;;;;;5014382;28;20029;-79
2023/01/01 12:52:26;;;;;;;0.90;0.50;;;15.20;75.60;;;;;;5013316;28;20396;-79
2023/01/01 12:55:06;;;;;;;0.65;0.50;;;15.20;75.50;;;;;;5019392;28;20034;-79
2023/01/01 12:57:39;;;;;;;1.10;0.73;;;15.20;75.50;;;;;;5033077;28;20021;-79
2023/01/01 13:00:20;;;;;;;1.88;0.45;;;15.20;75.50;;;;;;5032799;28;20083;-79
2023/01/01 13:02:59;;;;;;;1.25;0.50;;;15.20;75.60;;;;;;5032779;28;20045;-79
2023/01/01 13:05:30;;;;;;;0.82;0.43;;;15.20;75.60;;;;;;5032742;28;20031;-79
2023/01/01 13:07:59;;;;;;;1.50;0.77;;;15.20;75.60;;;;;;5032820;28;20104;-79